sensor_id;sensor_type;location;lat;lon;timestamp;pressure;altitude;pressure_sealevel;temperature;humidity
24390;BME280;12510;56.468;-3.004;2022-10-16T00:00:41;97990.78;;;12.28;100.00
24390;BME280;12510;56.468;-3.004;2022-10-16T00:03:09;97990.19;;;12.33;100.00
24390;BME280;12510;56.468;-3.004;2022-10-16T00:05:41;97997.31;;;12.26;100.00
24390;BME280;12510;56.468;-3.004;2022-10-16T00:08:08;97995.75;;;12.18;100.00
24390;BME280;12510;56.468;-3.004;2022-10-16T00:10:35;98005.53;;;12.04;100.00
24390;BME280;12510;56.468;-3.004;2022-10-16T00:13:03;98004.25;;;12.20;100.00
24390;BME280;12510;56.468;-3.004;2022-10-16T00:15:30;98004.75;;;12.03;100.00
24390;BME280;12510;56.468;-3.004;2022-10-16T00:17:58;98014.09;;;11.99;100.00
24390;BME280;12510;56.468;-3.004;2022-10-16T00:20:25;98018.72;;;12.04;100.00
24390;BME280;12510;56.468;-3.004;2022-10-16T00:23:10;98015.78;;;11.73;100.00
24390;BME280;12510;56.468;-3.004;2022-10-16T00:25:36;98008.03;;;11.79;100.00
24390;BME280;12510;56.468;-3.004;2022-10-16T00:28:03;97995.47;;;11.81;100.00
24390;BME280;12510;56.468;-3.004;2022-10-16T00:30:29;97994.63;;;12.00;100.00
24390;BME280;12510;56.468;-3.004;2022-10-16T00:32:56;97995.63;;;11.99;100.00
24390;BME280;12510;56.468;-3.004;2022-10-16T00:35:22;97997.84;;;12.02;100.00
24390;BME280;12510;56.468;-3.004;2022-10-16T00:37:49;97994.81;;;11.92;100.00
24390;BME280;12510;56.468;-3.004;2022-10-16T00:40:16;98007.41;;;11.97;100.00
24390;BME280;12510;56.468;-3.004;2022-10-16T00:42:42;98000.97;;;11.79;100.00
24390;BME280;12510;56.468;-3.004;2022-10-16T00:45:09;98006.88;;;11.61;100.00
24390;BME280;12510;56.468;-3.004;2022-10-16T00:47:42;98011.59;;;11.46;100.00
24390;BME280;12510;56.468;-3.004;2022-10-16T00:50:27;98016.09;;;11.05;100.00
24390;BME280;12510;56.468;-3.004;2022-10-16T00:52:55;98022.97;;;11.33;100.00
24390;BME280;12510;56.468;-3.004;2022-10-16T00:55:22;98021.56;;;11.30;100.00
24390;BME280;12510;56.468;-3.004;2022-10-16T00:57:51;98018.34;;;11.15;100.00
24390;BME280;12510;56.468;-3.004;2022-10-16T01:00:21;98016.06;;;11.32;100.00
24390;BME280;12510;56.468;-3.004;2022-10-16T01:02:54;98026.47;;;11.06;100.00
24390;BME280;12510;56.468;-3.004;2022-10-16T01:05:22;98030.50;;;11.09;100.00
24390;BME280;12510;56.468;-3.004;2022-10-16T01:08:08;98034.75;;;11.03;100.00
24390;BME280;12510;56.468;-3.004;2022-10-16T01:10:41;98034.16;;;11.15;100.00
24390;BME280;12510;56.468;-3.004;2022-10-16T01:13:51;98041.38;;;10.52;100.00
24390;BME280;12510;56.468;-3.004;2022-10-16T01:22:26;98062.28;;;11.21;100.00
24390;BME280;12510;56.468;-3.004;2022-10-16T01:25:01;98061.28;;;11.02;100.00
24390;BME280;12510;56.468;-3.004;2022-10-16T01:27:33;98070.59;;;10.78;100.00
24390;BME280;12510;56.468;-3.004;2022-10-16T01:30:22;98078.69;;;10.83;100.00
24390;BME280;12510;56.468;-3.004;2022-10-16T01:32:53;98086.19;;;10.86;100.00
24390;BME280;12510;56.468;-3.004;2022-10-16T01:35:27;98084.78;;;10.90;100.00
24390;BME280;12510;56.468;-3.004;2022-10-16T01:38:19;98101.16;;;10.72;100.00
24390;BME280;12510;56.468;-3.004;2022-10-16T01:40:52;98091.41;;;10.59;100.00
24390;BME280;12510;56.468;-3.004;2022-10-16T01:43:27;98098.06;;;10.55;100.00
24390;BME280;12510;56.468;-3.004;2022-10-16T01:45:56;98110.88;;;10.23;100.00
24390;BME280;12510;56.468;-3.004;2022-10-16T01:48:23;98105.75;;;10.50;100.00
24390;BME280;12510;56.468;-3.004;2022-10-16T01:51:02;98106.34;;;10.03;100.00
24390;BME280;12510;56.468;-3.004;2022-10-16T01:53:30;98116.75;;;10.25;100.00
24390;BME280;12510;56.468;-3.004;2022-10-16T01:55:58;98118.06;;;10.36;100.00
24390;BME280;12510;56.468;-3.004;2022-10-16T01:58:27;98117.53;;;10.19;100.00
24390;BME280;12510;56.468;-3.004;2022-10-16T02:01:02;98130.88;;;10.17;100.00
24390;BME280;12510;56.468;-3.004;2022-10-16T02:03:31;98136.00;;;10.32;100.00
24390;BME280;12510;56.468;-3.004;2022-10-16T02:05:59;98140.63;;;10.23;100.00
24390;BME280;12510;56.468;-3.004;2022-10-16T02:08:28;98149.06;;;10.12;100.00
24390;BME280;12510;56.468;-3.004;2022-10-16T02:10:56;98156.63;;;9.94;100.00
24390;BME280;12510;56.468;-3.004;2022-10-16T02:13:34;98164.34;;;9.95;100.00
24390;BME280;12510;56.468;-3.004;2022-10-16T02:16:02;98191.34;;;9.82;100.00
24390;BME280;12510;56.468;-3.004;2022-10-16T02:18:29;98203.50;;;10.12;100.00
24390;BME280;12510;56.468;-3.004;2022-10-16T02:21:20;98215.06;;;9.89;100.00
24390;BME280;12510;56.468;-3.004;2022-10-16T02:24:02;98222.50;;;10.14;100.00
24390;BME280;12510;56.468;-3.004;2022-10-16T02:26:40;98219.66;;;10.15;100.00
24390;BME280;12510;56.468;-3.004;2022-10-16T02:29:13;98213.00;;;10.41;100.00
24390;BME280;12510;56.468;-3.004;2022-10-16T02:31:45;98228.81;;;10.48;100.00
24390;BME280;12510;56.468;-3.004;2022-10-16T02:34:13;98220.50;;;10.44;100.00
24390;BME280;12510;56.468;-3.004;2022-10-16T02:36:42;98215.13;;;10.31;100.00
24390;BME280;12510;56.468;-3.004;2022-10-16T02:39:09;98221.03;;;10.33;100.00
24390;BME280;12510;56.468;-3.004;2022-10-16T02:41:36;98225.41;;;10.26;100.00
24390;BME280;12510;56.468;-3.004;2022-10-16T02:44:03;98236.66;;;9.84;100.00
24390;BME280;12510;56.468;-3.004;2022-10-16T02:46:29;98235.31;;;9.67;100.00
24390;BME280;12510;56.468;-3.004;2022-10-16T02:48:56;98241.34;;;9.89;100.00
24390;BME280;12510;56.468;-3.004;2022-10-16T02:51:22;98248.34;;;9.82;100.00
24390;BME280;12510;56.468;-3.004;2022-10-16T02:53:48;98268.63;;;9.88;100.00
24390;BME280;12510;56.468;-3.004;2022-10-16T02:56:15;98258.66;;;9.77;100.00
24390;BME280;12510;56.468;-3.004;2022-10-16T02:58:41;98270.72;;;9.49;100.00
24390;BME280;12510;56.468;-3.004;2022-10-16T03:01:08;98275.22;;;9.77;100.00
24390;BME280;12510;56.468;-3.004;2022-10-16T03:03:34;98279.91;;;9.60;100.00
24390;BME280;12510;56.468;-3.004;2022-10-16T03:06:00;98287.56;;;9.77;100.00
24390;BME280;12510;56.468;-3.004;2022-10-16T03:08:27;98284.94;;;9.77;100.00
24390;BME280;12510;56.468;-3.004;2022-10-16T03:10:53;98292.53;;;9.93;100.00
24390;BME280;12510;56.468;-3.004;2022-10-16T03:13:20;98290.78;;;10.00;100.00
24390;BME280;12510;56.468;-3.004;2022-10-16T03:15:47;98302.81;;;9.88;100.00
24390;BME280;12510;56.468;-3.004;2022-10-16T03:18:14;98303.56;;;9.82;100.00
24390;BME280;12510;56.468;-3.004;2022-10-16T03:20:42;98302.19;;;9.64;100.00
24390;BME280;12510;56.468;-3.004;2022-10-16T03:23:08;98317.94;;;9.64;100.00
24390;BME280;12510;56.468;-3.004;2022-10-16T03:25:35;98325.34;;;9.76;100.00
24390;BME280;12510;56.468;-3.004;2022-10-16T03:28:01;98332.00;;;9.71;100.00
24390;BME280;12510;56.468;-3.004;2022-10-16T03:30:27;98328.38;;;9.72;100.00
24390;BME280;12510;56.468;-3.004;2022-10-16T03:32:54;98341.00;;;9.62;100.00
24390;BME280;12510;56.468;-3.004;2022-10-16T03:35:21;98339.16;;;9.63;100.00
24390;BME280;12510;56.468;-3.004;2022-10-16T03:37:47;98340.34;;;9.60;100.00
24390;BME280;12510;56.468;-3.004;2022-10-16T03:40:14;98342.03;;;9.46;100.00
24390;BME280;12510;56.468;-3.004;2022-10-16T03:42:42;98346.63;;;9.59;100.00
24390;BME280;12510;56.468;-3.004;2022-10-16T03:45:10;98358.47;;;9.55;100.00
24390;BME280;12510;56.468;-3.004;2022-10-16T03:47:36;98352.50;;;9.61;100.00
24390;BME280;12510;56.468;-3.004;2022-10-16T03:50:04;98353.06;;;9.56;100.00
24390;BME280;12510;56.468;-3.004;2022-10-16T03:52:30;98357.38;;;9.64;100.00
24390;BME280;12510;56.468;-3.004;2022-10-16T03:54:58;98363.88;;;9.68;100.00
24390;BME280;12510;56.468;-3.004;2022-10-16T03:57:24;98359.00;;;9.65;100.00
24390;BME280;12510;56.468;-3.004;2022-10-16T03:59:50;98363.28;;;9.66;100.00
24390;BME280;12510;56.468;-3.004;2022-10-16T04:02:17;98355.13;;;9.61;100.00
24390;BME280;12510;56.468;-3.004;2022-10-16T04:04:43;98361.84;;;9.85;100.00
24390;BME280;12510;56.468;-3.004;2022-10-16T04:07:10;98356.56;;;9.64;100.00
24390;BME280;12510;56.468;-3.004;2022-10-16T04:09:36;98364.72;;;9.90;100.00
24390;BME280;12510;56.468;-3.004;2022-10-16T04:12:02;98363.47;;;9.86;100.00
24390;BME280;12510;56.468;-3.004;2022-10-16T04:14:29;98370.94;;;9.46;100.00
24390;BME280;12510;56.468;-3.004;2022-10-16T04:16:55;98381.13;;;9.56;100.00
24390;BME280;12510;56.468;-3.004;2022-10-16T04:19:21;98380.78;;;9.59;100.00
24390;BME280;12510;56.468;-3.004;2022-10-16T04:21:48;98387.19;;;9.71;100.00
24390;BME280;12510;56.468;-3.004;2022-10-16T04:24:14;98400.72;;;9.53;100.00
24390;BME280;12510;56.468;-3.004;2022-10-16T04:26:40;98391.91;;;9.61;100.00
24390;BME280;12510;56.468;-3.004;2022-10-16T04:29:07;98395.28;;;9.92;100.00
24390;BME280;12510;56.468;-3.004;2022-10-16T04:31:33;98398.22;;;10.03;100.00
24390;BME280;12510;56.468;-3.004;2022-10-16T04:34:00;98400.34;;;9.93;100.00
24390;BME280;12510;56.468;-3.004;2022-10-16T04:36:26;98398.50;;;8.76;100.00
24390;BME280;12510;56.468;-3.004;2022-10-16T04:38:53;98401.66;;;9.46;100.00
24390;BME280;12510;56.468;-3.004;2022-10-16T04:41:19;98388.06;;;9.42;100.00
24390;BME280;12510;56.468;-3.004;2022-10-16T04:43:46;98397.06;;;9.69;100.00
24390;BME280;12510;56.468;-3.004;2022-10-16T04:46:12;98396.72;;;9.72;100.00
24390;BME280;12510;56.468;-3.004;2022-10-16T04:48:39;98385.34;;;9.35;100.00
24390;BME280;12510;56.468;-3.004;2022-10-16T04:51:05;98385.47;;;9.27;100.00
24390;BME280;12510;56.468;-3.004;2022-10-16T04:53:31;98375.03;;;9.34;100.00
24390;BME280;12510;56.468;-3.004;2022-10-16T04:55:58;98389.84;;;9.56;100.00
24390;BME280;12510;56.468;-3.004;2022-10-16T04:58:25;98394.72;;;9.23;100.00
24390;BME280;12510;56.468;-3.004;2022-10-16T05:00:51;98409.38;;;9.02;100.00
24390;BME280;12510;56.468;-3.004;2022-10-16T05:03:18;98408.09;;;9.28;100.00
24390;BME280;12510;56.468;-3.004;2022-10-16T05:05:45;98405.47;;;9.13;100.00
24390;BME280;12510;56.468;-3.004;2022-10-16T05:08:13;98426.38;;;9.06;100.00
24390;BME280;12510;56.468;-3.004;2022-10-16T05:10:44;98437.81;;;9.14;100.00
24390;BME280;12510;56.468;-3.004;2022-10-16T05:13:10;98435.19;;;8.61;100.00
24390;BME280;12510;56.468;-3.004;2022-10-16T05:15:37;98430.81;;;8.76;100.00
24390;BME280;12510;56.468;-3.004;2022-10-16T05:18:03;98439.69;;;9.05;100.00
24390;BME280;12510;56.468;-3.004;2022-10-16T05:20:30;98436.69;;;9.08;100.00
24390;BME280;12510;56.468;-3.004;2022-10-16T05:22:56;98444.03;;;9.28;100.00
24390;BME280;12510;56.468;-3.004;2022-10-16T05:25:23;98450.19;;;9.35;100.00
24390;BME280;12510;56.468;-3.004;2022-10-16T05:27:49;98457.06;;;9.51;100.00
24390;BME280;12510;56.468;-3.004;2022-10-16T05:30:17;98458.53;;;9.53;100.00
24390;BME280;12510;56.468;-3.004;2022-10-16T05:32:48;98457.84;;;9.81;100.00
24390;BME280;12510;56.468;-3.004;2022-10-16T05:35:15;98464.22;;;9.57;100.00
24390;BME280;12510;56.468;-3.004;2022-10-16T05:37:43;98464.22;;;9.57;100.00
24390;BME280;12510;56.468;-3.004;2022-10-16T05:40:09;98473.84;;;9.50;100.00
24390;BME280;12510;56.468;-3.004;2022-10-16T05:42:36;98477.09;;;9.52;100.00
24390;BME280;12510;56.468;-3.004;2022-10-16T05:45:04;98477.09;;;9.52;100.00
24390;BME280;12510;56.468;-3.004;2022-10-16T05:47:31;98477.81;;;9.76;100.00
24390;BME280;12510;56.468;-3.004;2022-10-16T05:49:57;98485.78;;;9.82;100.00
24390;BME280;12510;56.468;-3.004;2022-10-16T05:52:24;98496.75;;;9.71;100.00
24390;BME280;12510;56.468;-3.004;2022-10-16T05:54:50;98502.16;;;9.84;100.00
24390;BME280;12510;56.468;-3.004;2022-10-16T05:57:17;98501.34;;;9.84;100.00
24390;BME280;12510;56.468;-3.004;2022-10-16T05:59:43;98506.00;;;9.52;100.00
24390;BME280;12510;56.468;-3.004;2022-10-16T06:02:13;98512.16;;;9.44;100.00
24390;BME280;12510;56.468;-3.004;2022-10-16T06:04:39;98505.00;;;9.23;100.00
24390;BME280;12510;56.468;-3.004;2022-10-16T06:07:06;98516.13;;;9.25;100.00
24390;BME280;12510;56.468;-3.004;2022-10-16T06:09:32;98519.50;;;9.19;100.00
24390;BME280;12510;56.468;-3.004;2022-10-16T06:11:59;98518.94;;;9.23;100.00
24390;BME280;12510;56.468;-3.004;2022-10-16T06:14:25;98518.38;;;9.28;100.00
24390;BME280;12510;56.468;-3.004;2022-10-16T06:16:52;98522.75;;;9.21;100.00
24390;BME280;12510;56.468;-3.004;2022-10-16T06:19:18;98524.28;;;9.30;100.00
24390;BME280;12510;56.468;-3.004;2022-10-16T06:21:44;98526.16;;;9.21;100.00
24390;BME280;12510;56.468;-3.004;2022-10-16T06:24:11;98524.47;;;9.14;100.00
24390;BME280;12510;56.468;-3.004;2022-10-16T06:26:37;98538.59;;;9.28;100.00
24390;BME280;12510;56.468;-3.004;2022-10-16T06:29:04;98538.75;;;9.11;100.00
24390;BME280;12510;56.468;-3.004;2022-10-16T06:31:31;98539.16;;;9.23;100.00
24390;BME280;12510;56.468;-3.004;2022-10-16T06:33:59;98548.31;;;9.27;100.00
24390;BME280;12510;56.468;-3.004;2022-10-16T06:36:26;98543.13;;;9.19;100.00
24390;BME280;12510;56.468;-3.004;2022-10-16T06:38:52;98543.78;;;9.36;100.00
24390;BME280;12510;56.468;-3.004;2022-10-16T06:41:20;98556.19;;;9.27;100.00
24390;BME280;12510;56.468;-3.004;2022-10-16T06:43:48;98566.78;;;9.34;100.00
24390;BME280;12510;56.468;-3.004;2022-10-16T06:46:17;98562.72;;;9.31;100.00
24390;BME280;12510;56.468;-3.004;2022-10-16T06:48:44;98581.63;;;9.42;100.00
24390;BME280;12510;56.468;-3.004;2022-10-16T06:51:21;98585.97;;;9.34;100.00
24390;BME280;12510;56.468;-3.004;2022-10-16T06:53:49;98590.66;;;9.24;100.00
24390;BME280;12510;56.468;-3.004;2022-10-16T06:56:24;98593.88;;;9.34;100.00
24390;BME280;12510;56.468;-3.004;2022-10-16T06:58:52;98605.34;;;9.33;100.00
24390;BME280;12510;56.468;-3.004;2022-10-16T07:01:20;98620.50;;;9.31;100.00
24390;BME280;12510;56.468;-3.004;2022-10-16T07:03:48;98626.44;;;9.25;100.00
24390;BME280;12510;56.468;-3.004;2022-10-16T07:06:19;98635.97;;;9.26;100.00
24390;BME280;12510;56.468;-3.004;2022-10-16T07:08:47;98642.41;;;9.00;100.00
24390;BME280;12510;56.468;-3.004;2022-10-16T07:11:16;98656.16;;;9.02;100.00
24390;BME280;12510;56.468;-3.004;2022-10-16T07:13:44;98668.00;;;8.98;100.00
24390;BME280;12510;56.468;-3.004;2022-10-16T07:16:16;98684.06;;;9.03;100.00
24390;BME280;12510;56.468;-3.004;2022-10-16T07:18:44;98694.59;;;8.64;100.00
24390;BME280;12510;56.468;-3.004;2022-10-16T07:21:17;98700.09;;;8.77;100.00
24390;BME280;12510;56.468;-3.004;2022-10-16T07:23:44;98696.06;;;8.66;100.00
24390;BME280;12510;56.468;-3.004;2022-10-16T07:26:10;98705.00;;;8.49;100.00
24390;BME280;12510;56.468;-3.004;2022-10-16T07:28:37;98710.03;;;8.67;100.00
24390;BME280;12510;56.468;-3.004;2022-10-16T07:31:08;98724.03;;;8.51;100.00
24390;BME280;12510;56.468;-3.004;2022-10-16T07:33:37;98745.25;;;8.72;100.00
24390;BME280;12510;56.468;-3.004;2022-10-16T07:36:05;98743.53;;;8.88;100.00
24390;BME280;12510;56.468;-3.004;2022-10-16T07:38:31;98749.81;;;8.79;100.00
24390;BME280;12510;56.468;-3.004;2022-10-16T07:40:59;98743.09;;;9.08;100.00
24390;BME280;12510;56.468;-3.004;2022-10-16T07:43:27;98766.16;;;8.89;100.00
24390;BME280;12510;56.468;-3.004;2022-10-16T07:45:53;98752.81;;;8.67;100.00
24390;BME280;12510;56.468;-3.004;2022-10-16T07:48:22;98767.13;;;8.57;100.00
24390;BME280;12510;56.468;-3.004;2022-10-16T07:50:49;98777.59;;;8.65;100.00
24390;BME280;12510;56.468;-3.004;2022-10-16T07:53:15;98775.47;;;9.54;100.00
24390;BME280;12510;56.468;-3.004;2022-10-16T07:55:42;98787.94;;;9.99;100.00
24390;BME280;12510;56.468;-3.004;2022-10-16T07:58:08;98792.03;;;10.84;100.00
24390;BME280;12510;56.468;-3.004;2022-10-16T08:00:36;98802.69;;;11.93;100.00
24390;BME280;12510;56.468;-3.004;2022-10-16T08:03:03;98819.53;;;12.41;100.00
24390;BME280;12510;56.468;-3.004;2022-10-16T08:05:31;98831.34;;;12.74;100.00
24390;BME280;12510;56.468;-3.004;2022-10-16T08:07:58;98851.78;;;13.00;100.00
24390;BME280;12510;56.468;-3.004;2022-10-16T08:10:26;98857.16;;;12.22;100.00
24390;BME280;12510;56.468;-3.004;2022-10-16T08:12:53;98872.94;;;12.15;100.00
24390;BME280;12510;56.468;-3.004;2022-10-16T08:15:20;98862.91;;;11.89;100.00
24390;BME280;12510;56.468;-3.004;2022-10-16T08:18:16;98888.63;;;11.29;100.00
24390;BME280;12510;56.468;-3.004;2022-10-16T08:20:43;98893.03;;;11.06;100.00
24390;BME280;12510;56.468;-3.004;2022-10-16T08:23:11;98886.09;;;11.20;100.00
24390;BME280;12510;56.468;-3.004;2022-10-16T08:25:39;98887.00;;;10.98;100.00
24390;BME280;12510;56.468;-3.004;2022-10-16T08:28:08;98892.28;;;10.68;100.00
24390;BME280;12510;56.468;-3.004;2022-10-16T08:30:36;98897.06;;;10.64;100.00
24390;BME280;12510;56.468;-3.004;2022-10-16T08:33:03;98900.00;;;10.99;100.00
24390;BME280;12510;56.468;-3.004;2022-10-16T08:35:29;98916.50;;;10.78;100.00
24390;BME280;12510;56.468;-3.004;2022-10-16T08:37:56;98917.91;;;10.89;100.00
24390;BME280;12510;56.468;-3.004;2022-10-16T08:40:24;98914.59;;;11.32;100.00
24390;BME280;12510;56.468;-3.004;2022-10-16T08:48:53;98940.28;;;12.83;100.00
24390;BME280;12510;56.468;-3.004;2022-10-16T08:51:26;98945.91;;;13.85;100.00
24390;BME280;12510;56.468;-3.004;2022-10-16T08:54:27;98952.66;;;14.01;100.00
24390;BME280;12510;56.468;-3.004;2022-10-16T08:56:56;98954.94;;;13.20;100.00
24390;BME280;12510;56.468;-3.004;2022-10-16T08:59:23;98951.97;;;13.72;100.00
24390;BME280;12510;56.468;-3.004;2022-10-16T09:01:50;98957.72;;;13.40;100.00
24390;BME280;12510;56.468;-3.004;2022-10-16T09:04:45;98960.69;;;14.54;100.00
24390;BME280;12510;56.468;-3.004;2022-10-16T09:07:40;98967.00;;;14.33;100.00
24390;BME280;12510;56.468;-3.004;2022-10-16T09:18:36;99016.06;;;15.56;100.00
24390;BME280;12510;56.468;-3.004;2022-10-16T09:23:39;99045.81;;;15.79;100.00
24390;BME280;12510;56.468;-3.004;2022-10-16T09:26:10;99055.31;;;14.94;100.00
24390;BME280;12510;56.468;-3.004;2022-10-16T09:28:37;99063.69;;;15.11;100.00
24390;BME280;12510;56.468;-3.004;2022-10-16T09:31:04;99060.81;;;14.93;100.00
24390;BME280;12510;56.468;-3.004;2022-10-16T09:33:34;99076.53;;;14.19;100.00
24390;BME280;12510;56.468;-3.004;2022-10-16T09:36:03;99078.13;;;14.06;100.00
24390;BME280;12510;56.468;-3.004;2022-10-16T09:38:33;99089.50;;;14.62;100.00
24390;BME280;12510;56.468;-3.004;2022-10-16T09:41:29;99098.75;;;15.27;100.00
24390;BME280;12510;56.468;-3.004;2022-10-16T09:44:00;99108.34;;;15.21;100.00
24390;BME280;12510;56.468;-3.004;2022-10-16T09:46:34;99109.75;;;14.90;100.00
24390;BME280;12510;56.468;-3.004;2022-10-16T09:49:04;99114.47;;;15.15;100.00
24390;BME280;12510;56.468;-3.004;2022-10-16T09:51:36;99116.88;;;15.70;100.00
24390;BME280;12510;56.468;-3.004;2022-10-16T09:56:37;99131.78;;;15.17;100.00
24390;BME280;12510;56.468;-3.004;2022-10-16T09:59:31;99139.75;;;15.44;100.00
24390;BME280;12510;56.468;-3.004;2022-10-16T10:02:02;99144.66;;;15.74;100.00
24390;BME280;12510;56.468;-3.004;2022-10-16T10:04:40;99153.81;;;14.91;100.00
24390;BME280;12510;56.468;-3.004;2022-10-16T10:07:18;99174.38;;;14.89;100.00
24390;BME280;12510;56.468;-3.004;2022-10-16T10:09:46;99174.03;;;14.08;100.00
24390;BME280;12510;56.468;-3.004;2022-10-16T10:12:27;99189.81;;;14.72;100.00
24390;BME280;12510;56.468;-3.004;2022-10-16T10:15:11;99184.63;;;14.57;100.00
24390;BME280;12510;56.468;-3.004;2022-10-16T10:17:50;99182.06;;;14.70;100.00
24390;BME280;12510;56.468;-3.004;2022-10-16T10:20:31;99195.19;;;14.08;100.00
24390;BME280;12510;56.468;-3.004;2022-10-16T10:23:15;99184.28;;;14.25;100.00
24390;BME280;12510;56.468;-3.004;2022-10-16T10:28:29;99206.34;;;13.97;100.00
24390;BME280;12510;56.468;-3.004;2022-10-16T10:31:48;99206.09;;;14.27;100.00
24390;BME280;12510;56.468;-3.004;2022-10-16T10:37:26;99234.09;;;14.08;100.00
24390;BME280;12510;56.468;-3.004;2022-10-16T10:43:06;99244.94;;;14.97;100.00
24390;BME280;12510;56.468;-3.004;2022-10-16T10:45:47;99251.41;;;15.56;100.00
24390;BME280;12510;56.468;-3.004;2022-10-16T10:48:26;99254.81;;;15.30;100.00
24390;BME280;12510;56.468;-3.004;2022-10-16T10:51:45;99259.50;;;15.28;100.00
24390;BME280;12510;56.468;-3.004;2022-10-16T10:57:28;99287.91;;;14.85;100.00
24390;BME280;12510;56.468;-3.004;2022-10-16T11:02:37;99294.09;;;14.99;100.00
24390;BME280;12510;56.468;-3.004;2022-10-16T11:10:21;99338.91;;;14.87;100.00
24390;BME280;12510;56.468;-3.004;2022-10-16T11:12:54;99338.44;;;14.77;100.00
24390;BME280;12510;56.468;-3.004;2022-10-16T11:15:28;99340.66;;;15.08;100.00
24390;BME280;12510;56.468;-3.004;2022-10-16T11:18:02;99333.53;;;14.46;100.00
24390;BME280;12510;56.468;-3.004;2022-10-16T11:20:39;99339.47;;;15.18;100.00
24390;BME280;12510;56.468;-3.004;2022-10-16T11:26:06;99368.09;;;14.94;100.00
24390;BME280;12510;56.468;-3.004;2022-10-16T11:28:48;99376.28;;;15.48;100.00
24390;BME280;12510;56.468;-3.004;2022-10-16T11:31:35;99380.13;;;15.38;100.00
24390;BME280;12510;56.468;-3.004;2022-10-16T11:34:41;99394.94;;;15.19;100.00
24390;BME280;12510;56.468;-3.004;2022-10-16T11:37:24;99410.09;;;15.39;100.00
24390;BME280;12510;56.468;-3.004;2022-10-16T11:39:54;99421.81;;;15.51;100.00
24390;BME280;12510;56.468;-3.004;2022-10-16T11:42:31;99419.97;;;15.10;100.00
24390;BME280;12510;56.468;-3.004;2022-10-16T11:45:02;99427.97;;;15.17;100.00
24390;BME280;12510;56.468;-3.004;2022-10-16T11:50:17;99428.72;;;15.04;100.00
24390;BME280;12510;56.468;-3.004;2022-10-16T11:55:48;99453.06;;;14.86;100.00
24390;BME280;12510;56.468;-3.004;2022-10-16T12:03:42;99455.25;;;15.11;100.00
24390;BME280;12510;56.468;-3.004;2022-10-16T12:08:46;99470.81;;;15.55;100.00
24390;BME280;12510;56.468;-3.004;2022-10-16T12:19:24;99491.09;;;15.00;100.00
24390;BME280;12510;56.468;-3.004;2022-10-16T12:21:52;99486.16;;;15.25;100.00
24390;BME280;12510;56.468;-3.004;2022-10-16T12:24:27;99497.78;;;15.24;100.00
24390;BME280;12510;56.468;-3.004;2022-10-16T12:26:56;99505.84;;;15.44;99.81
24390;BME280;12510;56.468;-3.004;2022-10-16T12:31:54;99520.00;;;15.93;100.00
24390;BME280;12510;56.468;-3.004;2022-10-16T12:34:41;99515.56;;;15.65;100.00
24390;BME280;12510;56.468;-3.004;2022-10-16T12:37:13;99516.22;;;15.74;100.00
24390;BME280;12510;56.468;-3.004;2022-10-16T12:39:44;99518.91;;;15.46;100.00
24390;BME280;12510;56.468;-3.004;2022-10-16T12:42:32;99527.25;;;15.42;100.00
24390;BME280;12510;56.468;-3.004;2022-10-16T12:44:59;99535.69;;;15.18;100.00
24390;BME280;12510;56.468;-3.004;2022-10-16T12:49:56;99535.56;;;16.09;100.00
24390;BME280;12510;56.468;-3.004;2022-10-16T12:55:00;99550.97;;;16.34;100.00
24390;BME280;12510;56.468;-3.004;2022-10-16T12:57:59;99560.44;;;16.57;100.00
24390;BME280;12510;56.468;-3.004;2022-10-16T13:00:39;99553.91;;;15.28;100.00
24390;BME280;12510;56.468;-3.004;2022-10-16T13:08:45;99569.06;;;15.69;100.00
24390;BME280;12510;56.468;-3.004;2022-10-16T13:28:03;99627.88;;;15.16;100.00
24390;BME280;12510;56.468;-3.004;2022-10-16T13:30:43;99632.88;;;15.32;100.00
24390;BME280;12510;56.468;-3.004;2022-10-16T13:33:27;99627.41;;;15.34;100.00
24390;BME280;12510;56.468;-3.004;2022-10-16T13:35:57;99625.66;;;15.76;100.00
24390;BME280;12510;56.468;-3.004;2022-10-16T13:38:34;99627.97;;;15.57;100.00
24390;BME280;12510;56.468;-3.004;2022-10-16T13:41:05;99625.88;;;15.46;100.00
24390;BME280;12510;56.468;-3.004;2022-10-16T13:43:36;99631.53;;;15.15;100.00
24390;BME280;12510;56.468;-3.004;2022-10-16T13:46:21;99625.78;;;15.11;100.00
24390;BME280;12510;56.468;-3.004;2022-10-16T13:49:04;99632.72;;;15.12;100.00
24390;BME280;12510;56.468;-3.004;2022-10-16T13:51:32;99625.78;;;15.11;100.00
24390;BME280;12510;56.468;-3.004;2022-10-16T13:53:59;99624.72;;;15.27;99.09
24390;BME280;12510;56.468;-3.004;2022-10-16T13:56:28;99627.16;;;14.85;100.00
24390;BME280;12510;56.468;-3.004;2022-10-16T13:59:00;99628.31;;;15.48;98.84
24390;BME280;12510;56.468;-3.004;2022-10-16T14:01:33;99628.44;;;15.11;98.58
24390;BME280;12510;56.468;-3.004;2022-10-16T14:04:11;99639.81;;;15.05;98.35
24390;BME280;12510;56.468;-3.004;2022-10-16T14:06:46;99643.28;;;15.27;100.00
24390;BME280;12510;56.468;-3.004;2022-10-16T14:09:22;99652.59;;;15.23;97.32
24390;BME280;12510;56.468;-3.004;2022-10-16T14:11:58;99644.44;;;15.46;95.83
24390;BME280;12510;56.468;-3.004;2022-10-16T14:14:27;99652.34;;;15.39;94.39
24390;BME280;12510;56.468;-3.004;2022-10-16T14:17:00;99644.53;;;15.31;90.16
24390;BME280;12510;56.468;-3.004;2022-10-16T14:19:29;99652.25;;;15.26;92.57
24390;BME280;12510;56.468;-3.004;2022-10-16T14:21:57;99648.25;;;15.65;86.79
24390;BME280;12510;56.468;-3.004;2022-10-16T14:26:55;99663.25;;;15.51;86.28
24390;BME280;12510;56.468;-3.004;2022-10-16T14:29:24;99675.19;;;14.75;91.19
24390;BME280;12510;56.468;-3.004;2022-10-16T14:32:21;99672.56;;;14.97;93.14
24390;BME280;12510;56.468;-3.004;2022-10-16T14:34:53;99684.00;;;14.98;90.71
24390;BME280;12510;56.468;-3.004;2022-10-16T14:37:24;99690.41;;;15.53;89.68
24390;BME280;12510;56.468;-3.004;2022-10-16T14:39:52;99684.44;;;15.23;92.89
24390;BME280;12510;56.468;-3.004;2022-10-16T14:42:21;99683.47;;;15.31;93.69
24390;BME280;12510;56.468;-3.004;2022-10-16T14:44:51;99687.22;;;15.15;92.62
24390;BME280;12510;56.468;-3.004;2022-10-16T14:47:24;99694.81;;;15.18;90.67